sensor_id;sensor_type;location;lat;lon;timestamp;P1;durP1;ratioP1;P2;durP2;ratioP2
21777;SDS011;11050;52.222;20.916;2023-08-20T00:00:27;26.02;;;23.35;;
21777;SDS011;11050;52.222;20.916;2023-08-20T00:03:03;22.98;;;20.70;;
21777;SDS011;11050;52.222;20.916;2023-08-20T00:05:38;24.05;;;21.55;;
21777;SDS011;11050;52.222;20.916;2023-08-20T00:08:04;29.45;;;23.52;;
21777;SDS011;11050;52.222;20.916;2023-08-20T00:10:30;24.38;;;22.05;;
21777;SDS011;11050;52.222;20.916;2023-08-20T00:12:57;24.73;;;22.35;;
21777;SDS011;11050;52.222;20.916;2023-08-20T00:15:23;24.67;;;22.17;;
21777;SDS011;11050;52.222;20.916;2023-08-20T00:17:52;26.98;;;22.65;;
21777;SDS011;11050;52.222;20.916;2023-08-20T00:20:20;25.52;;;22.92;;
21777;SDS011;11050;52.222;20.916;2023-08-20T00:22:47;23.77;;;21.42;;
21777;SDS011;11050;52.222;20.916;2023-08-20T00:25:14;24.13;;;21.65;;
21777;SDS011;11050;52.222;20.916;2023-08-20T00:27:41;25.27;;;22.55;;
21777;SDS011;11050;52.222;20.916;2023-08-20T00:30:08;24.85;;;22.42;;
21777;SDS011;11050;52.222;20.916;2023-08-20T00:32:35;26.20;;;22.23;;
21777;SDS011;11050;52.222;20.916;2023-08-20T00:35:02;25.60;;;22.85;;
21777;SDS011;11050;52.222;20.916;2023-08-20T00:37:29;26.42;;;22.20;;
21777;SDS011;11050;52.222;20.916;2023-08-20T00:39:55;24.10;;;21.80;;
21777;SDS011;11050;52.222;20.916;2023-08-20T00:42:22;28.83;;;24.45;;
21777;SDS011;11050;52.222;20.916;2023-08-20T00:44:50;25.25;;;22.65;;
21777;SDS011;11050;52.222;20.916;2023-08-20T00:47:19;25.40;;;22.77;;
21777;SDS011;11050;52.222;20.916;2023-08-20T00:49:45;24.75;;;22.27;;
21777;SDS011;11050;52.222;20.916;2023-08-20T00:52:14;26.05;;;23.33;;
21777;SDS011;11050;52.222;20.916;2023-08-20T00:54:45;27.02;;;23.52;;
21777;SDS011;11050;52.222;20.916;2023-08-20T00:57:17;25.80;;;22.95;;
21777;SDS011;11050;52.222;20.916;2023-08-20T00:59:47;27.08;;;23.88;;
21777;SDS011;11050;52.222;20.916;2023-08-20T01:02:17;26.77;;;24.00;;
21777;SDS011;11050;52.222;20.916;2023-08-20T01:04:43;25.67;;;22.83;;
21777;SDS011;11050;52.222;20.916;2023-08-20T01:07:27;26.30;;;23.70;;
21777;SDS011;11050;52.222;20.916;2023-08-20T01:12:47;26.80;;;24.10;;
21777;SDS011;11050;52.222;20.916;2023-08-20T01:15:15;27.13;;;23.85;;
21777;SDS011;11050;52.222;20.916;2023-08-20T01:17:41;27.17;;;24.35;;
21777;SDS011;11050;52.222;20.916;2023-08-20T01:20:08;25.98;;;23.27;;
21777;SDS011;11050;52.222;20.916;2023-08-20T01:26:25;26.15;;;23.40;;
21777;SDS011;11050;52.222;20.916;2023-08-20T01:29:21;26.77;;;23.45;;
21777;SDS011;11050;52.222;20.916;2023-08-20T01:31:47;29.23;;;24.27;;
21777;SDS011;11050;52.222;20.916;2023-08-20T01:34:13;27.80;;;23.27;;
21777;SDS011;11050;52.222;20.916;2023-08-20T01:36:39;25.90;;;23.20;;
21777;SDS011;11050;52.222;20.916;2023-08-20T01:39:05;26.45;;;23.77;;
21777;SDS011;11050;52.222;20.916;2023-08-20T01:41:30;26.35;;;23.73;;
21777;SDS011;11050;52.222;20.916;2023-08-20T01:43:56;25.42;;;22.98;;
21777;SDS011;11050;52.222;20.916;2023-08-20T01:46:22;25.88;;;23.15;;
21777;SDS011;11050;52.222;20.916;2023-08-20T01:48:47;25.90;;;23.20;;
21777;SDS011;11050;52.222;20.916;2023-08-20T01:51:13;26.55;;;23.95;;
21777;SDS011;11050;52.222;20.916;2023-08-20T01:53:39;27.92;;;25.23;;
21777;SDS011;11050;52.222;20.916;2023-08-20T01:56:09;31.60;;;25.17;;
21777;SDS011;11050;52.222;20.916;2023-08-20T01:58:37;29.48;;;26.42;;
21777;SDS011;11050;52.222;20.916;2023-08-20T02:01:03;28.88;;;25.77;;
21777;SDS011;11050;52.222;20.916;2023-08-20T02:03:29;29.30;;;26.25;;
21777;SDS011;11050;52.222;20.916;2023-08-20T02:05:54;30.15;;;27.05;;
21777;SDS011;11050;52.222;20.916;2023-08-20T02:08:20;29.20;;;26.33;;
21777;SDS011;11050;52.222;20.916;2023-08-20T02:10:46;28.88;;;25.60;;
21777;SDS011;11050;52.222;20.916;2023-08-20T02:13:12;31.15;;;27.85;;
21777;SDS011;11050;52.222;20.916;2023-08-20T02:15:37;29.90;;;27.00;;
21777;SDS011;11050;52.222;20.916;2023-08-20T02:18:03;29.38;;;26.58;;
21777;SDS011;11050;52.222;20.916;2023-08-20T02:20:29;31.00;;;27.60;;
21777;SDS011;11050;52.222;20.916;2023-08-20T02:22:55;30.88;;;27.58;;
21777;SDS011;11050;52.222;20.916;2023-08-20T02:25:20;30.35;;;27.27;;
21777;SDS011;11050;52.222;20.916;2023-08-20T02:27:48;30.25;;;27.05;;
21777;SDS011;11050;52.222;20.916;2023-08-20T02:30:14;32.35;;;28.85;;
21777;SDS011;11050;52.222;20.916;2023-08-20T02:32:39;31.75;;;28.42;;
21777;SDS011;11050;52.222;20.916;2023-08-20T02:35:05;31.33;;;28.10;;
21777;SDS011;11050;52.222;20.916;2023-08-20T02:37:32;30.42;;;27.48;;
21777;SDS011;11050;52.222;20.916;2023-08-20T02:39:57;32.08;;;28.60;;
21777;SDS011;11050;52.222;20.916;2023-08-20T02:42:23;30.40;;;27.25;;
21777;SDS011;11050;52.222;20.916;2023-08-20T02:44:49;30.55;;;26.83;;
21777;SDS011;11050;52.222;20.916;2023-08-20T02:47:14;30.45;;;27.35;;
21777;SDS011;11050;52.222;20.916;2023-08-20T02:49:40;30.67;;;27.30;;
21777;SDS011;11050;52.222;20.916;2023-08-20T02:52:06;30.48;;;27.27;;
21777;SDS011;11050;52.222;20.916;2023-08-20T02:54:31;29.67;;;26.50;;
21777;SDS011;11050;52.222;20.916;2023-08-20T02:56:57;32.80;;;27.98;;
21777;SDS011;11050;52.222;20.916;2023-08-20T02:59:24;29.75;;;26.60;;
21777;SDS011;11050;52.222;20.916;2023-08-20T03:01:49;29.20;;;25.63;;
21777;SDS011;11050;52.222;20.916;2023-08-20T03:04:15;30.52;;;26.98;;
21777;SDS011;11050;52.222;20.916;2023-08-20T03:06:41;30.83;;;26.05;;
21777;SDS011;11050;52.222;20.916;2023-08-20T03:09:07;28.00;;;25.00;;
21777;SDS011;11050;52.222;20.916;2023-08-20T03:11:32;29.58;;;26.25;;
21777;SDS011;11050;52.222;20.916;2023-08-20T03:13:58;29.10;;;26.10;;
21777;SDS011;11050;52.222;20.916;2023-08-20T03:16:24;30.98;;;27.67;;
21777;SDS011;11050;52.222;20.916;2023-08-20T03:18:49;30.73;;;27.65;;
21777;SDS011;11050;52.222;20.916;2023-08-20T03:21:15;31.02;;;26.20;;
21777;SDS011;11050;52.222;20.916;2023-08-20T03:23:40;30.08;;;27.17;;
21777;SDS011;11050;52.222;20.916;2023-08-20T03:26:06;34.50;;;30.40;;
21777;SDS011;11050;52.222;20.916;2023-08-20T03:28:32;32.78;;;29.20;;
21777;SDS011;11050;52.222;20.916;2023-08-20T03:31:00;33.45;;;29.83;;
21777;SDS011;11050;52.222;20.916;2023-08-20T03:33:27;32.00;;;28.58;;
21777;SDS011;11050;52.222;20.916;2023-08-20T03:35:52;32.08;;;28.55;;
21777;SDS011;11050;52.222;20.916;2023-08-20T03:38:18;32.53;;;29.23;;
21777;SDS011;11050;52.222;20.916;2023-08-20T03:40:44;32.70;;;29.17;;
21777;SDS011;11050;52.222;20.916;2023-08-20T03:43:10;31.77;;;27.45;;
21777;SDS011;11050;52.222;20.916;2023-08-20T03:45:36;34.42;;;30.70;;
21777;SDS011;11050;52.222;20.916;2023-08-20T03:48:01;32.92;;;29.45;;
21777;SDS011;11050;52.222;20.916;2023-08-20T03:50:27;33.58;;;30.05;;
21777;SDS011;11050;52.222;20.916;2023-08-20T03:52:53;32.92;;;29.50;;
21777;SDS011;11050;52.222;20.916;2023-08-20T03:55:19;32.05;;;28.52;;
21777;SDS011;11050;52.222;20.916;2023-08-20T03:57:44;31.40;;;28.15;;
21777;SDS011;11050;52.222;20.916;2023-08-20T04:00:10;32.20;;;28.75;;
21777;SDS011;11050;52.222;20.916;2023-08-20T04:02:37;33.10;;;29.52;;
21777;SDS011;11050;52.222;20.916;2023-08-20T04:05:03;34.83;;;28.80;;
21777;SDS011;11050;52.222;20.916;2023-08-20T04:07:29;35.42;;;29.92;;
21777;SDS011;11050;52.222;20.916;2023-08-20T04:09:55;33.58;;;28.45;;
21777;SDS011;11050;52.222;20.916;2023-08-20T04:12:21;33.72;;;29.90;;
21777;SDS011;11050;52.222;20.916;2023-08-20T04:14:46;31.65;;;28.45;;
21777;SDS011;11050;52.222;20.916;2023-08-20T04:17:12;33.10;;;29.70;;
21777;SDS011;11050;52.222;20.916;2023-08-20T04:19:37;32.28;;;28.98;;
21777;SDS011;11050;52.222;20.916;2023-08-20T04:22:03;34.50;;;29.77;;
21777;SDS011;11050;52.222;20.916;2023-08-20T04:24:29;30.98;;;27.73;;
21777;SDS011;11050;52.222;20.916;2023-08-20T04:26:54;31.02;;;27.88;;
21777;SDS011;11050;52.222;20.916;2023-08-20T04:29:20;31.50;;;28.02;;
21777;SDS011;11050;52.222;20.916;2023-08-20T04:31:46;31.27;;;27.98;;
21777;SDS011;11050;52.222;20.916;2023-08-20T04:34:11;30.42;;;27.23;;
21777;SDS011;11050;52.222;20.916;2023-08-20T04:36:37;32.22;;;28.92;;
21777;SDS011;11050;52.222;20.916;2023-08-20T04:39:03;30.73;;;27.42;;
21777;SDS011;11050;52.222;20.916;2023-08-20T04:41:29;31.35;;;28.17;;
21777;SDS011;11050;52.222;20.916;2023-08-20T04:43:55;33.17;;;29.67;;
21777;SDS011;11050;52.222;20.916;2023-08-20T04:46:20;32.80;;;29.65;;
21777;SDS011;11050;52.222;20.916;2023-08-20T04:48:46;33.50;;;30.00;;
21777;SDS011;11050;52.222;20.916;2023-08-20T04:51:12;32.67;;;29.30;;
21777;SDS011;11050;52.222;20.916;2023-08-20T04:53:37;31.33;;;28.25;;
21777;SDS011;11050;52.222;20.916;2023-08-20T04:56:03;32.95;;;29.05;;
21777;SDS011;11050;52.222;20.916;2023-08-20T04:58:29;34.85;;;29.70;;
21777;SDS011;11050;52.222;20.916;2023-08-20T05:00:54;31.77;;;28.65;;
21777;SDS011;11050;52.222;20.916;2023-08-20T05:03:20;31.05;;;27.73;;
21777;SDS011;11050;52.222;20.916;2023-08-20T05:05:49;32.55;;;29.15;;
21777;SDS011;11050;52.222;20.916;2023-08-20T05:08:16;32.60;;;29.42;;
21777;SDS011;11050;52.222;20.916;2023-08-20T05:10:42;32.30;;;29.08;;
21777;SDS011;11050;52.222;20.916;2023-08-20T05:13:08;31.90;;;28.67;;
21777;SDS011;11050;52.222;20.916;2023-08-20T05:15:34;31.02;;;27.92;;
21777;SDS011;11050;52.222;20.916;2023-08-20T05:17:59;30.65;;;27.52;;
21777;SDS011;11050;52.222;20.916;2023-08-20T05:20:25;29.83;;;26.92;;
21777;SDS011;11050;52.222;20.916;2023-08-20T05:22:51;30.90;;;27.63;;
21777;SDS011;11050;52.222;20.916;2023-08-20T05:25:16;29.70;;;26.90;;
21777;SDS011;11050;52.222;20.916;2023-08-20T05:27:42;31.35;;;28.35;;
21777;SDS011;11050;52.222;20.916;2023-08-20T05:30:08;31.45;;;28.27;;
21777;SDS011;11050;52.222;20.916;2023-08-20T05:32:34;30.83;;;27.17;;
21777;SDS011;11050;52.222;20.916;2023-08-20T05:35:00;32.03;;;28.50;;
21777;SDS011;11050;52.222;20.916;2023-08-20T05:37:26;31.45;;;27.40;;
21777;SDS011;11050;52.222;20.916;2023-08-20T05:39:51;31.45;;;28.20;;
21777;SDS011;11050;52.222;20.916;2023-08-20T05:42:17;29.83;;;26.77;;
21777;SDS011;11050;52.222;20.916;2023-08-20T05:44:43;29.58;;;26.73;;
21777;SDS011;11050;52.222;20.916;2023-08-20T05:47:08;29.80;;;26.70;;
21777;SDS011;11050;52.222;20.916;2023-08-20T05:49:34;28.23;;;25.52;;
21777;SDS011;11050;52.222;20.916;2023-08-20T05:52:00;29.58;;;26.75;;
21777;SDS011;11050;52.222;20.916;2023-08-20T05:54:27;28.20;;;25.30;;
21777;SDS011;11050;52.222;20.916;2023-08-20T05:56:52;30.17;;;26.13;;
21777;SDS011;11050;52.222;20.916;2023-08-20T05:59:18;28.58;;;25.67;;
21777;SDS011;11050;52.222;20.916;2023-08-20T06:01:43;28.83;;;25.92;;
21777;SDS011;11050;52.222;20.916;2023-08-20T06:04:09;26.63;;;24.00;;
21777;SDS011;11050;52.222;20.916;2023-08-20T06:06:35;27.73;;;25.13;;
21777;SDS011;11050;52.222;20.916;2023-08-20T06:09:01;26.10;;;23.67;;
21777;SDS011;11050;52.222;20.916;2023-08-20T06:11:27;36.38;;;29.20;;
21777;SDS011;11050;52.222;20.916;2023-08-20T06:13:52;30.20;;;25.23;;
21777;SDS011;11050;52.222;20.916;2023-08-20T06:16:18;26.70;;;23.98;;
21777;SDS011;11050;52.222;20.916;2023-08-20T06:18:43;25.55;;;22.83;;
21777;SDS011;11050;52.222;20.916;2023-08-20T06:21:09;25.13;;;22.75;;
21777;SDS011;11050;52.222;20.916;2023-08-20T06:23:35;24.42;;;22.02;;
21777;SDS011;11050;52.222;20.916;2023-08-20T06:26:00;26.27;;;23.35;;
21777;SDS011;11050;52.222;20.916;2023-08-20T06:28:26;25.35;;;22.73;;
21777;SDS011;11050;52.222;20.916;2023-08-20T06:30:52;23.73;;;21.42;;
21777;SDS011;11050;52.222;20.916;2023-08-20T06:33:17;25.38;;;22.88;;
21777;SDS011;11050;52.222;20.916;2023-08-20T06:35:43;23.88;;;21.60;;
21777;SDS011;11050;52.222;20.916;2023-08-20T06:38:08;23.20;;;20.92;;
21777;SDS011;11050;52.222;20.916;2023-08-20T06:40:34;23.58;;;21.13;;
21777;SDS011;11050;52.222;20.916;2023-08-20T06:43:00;20.63;;;18.55;;
21777;SDS011;11050;52.222;20.916;2023-08-20T06:45:25;21.02;;;19.02;;
21777;SDS011;11050;52.222;20.916;2023-08-20T06:47:51;21.98;;;19.95;;
21777;SDS011;11050;52.222;20.916;2023-08-20T06:50:17;21.13;;;18.92;;
21777;SDS011;11050;52.222;20.916;2023-08-20T06:52:42;20.85;;;18.85;;
21777;SDS011;11050;52.222;20.916;2023-08-20T06:55:08;20.17;;;18.33;;
21777;SDS011;11050;52.222;20.916;2023-08-20T06:57:34;21.88;;;19.65;;
21777;SDS011;11050;52.222;20.916;2023-08-20T07:00:00;19.65;;;17.70;;
21777;SDS011;11050;52.222;20.916;2023-08-20T07:02:26;20.48;;;18.38;;
21777;SDS011;11050;52.222;20.916;2023-08-20T07:04:51;19.60;;;17.65;;
21777;SDS011;11050;52.222;20.916;2023-08-20T07:07:17;20.95;;;18.80;;
21777;SDS011;11050;52.222;20.916;2023-08-20T07:09:43;21.27;;;19.30;;
21777;SDS011;11050;52.222;20.916;2023-08-20T07:12:08;19.42;;;17.27;;
21777;SDS011;11050;52.222;20.916;2023-08-20T07:14:34;26.45;;;17.85;;
21777;SDS011;11050;52.222;20.916;2023-08-20T07:16:59;20.83;;;18.70;;
21777;SDS011;11050;52.222;20.916;2023-08-20T07:19:27;20.25;;;18.33;;
21777;SDS011;11050;52.222;20.916;2023-08-20T07:21:54;19.17;;;17.48;;
21777;SDS011;11050;52.222;20.916;2023-08-20T07:24:20;20.48;;;18.48;;
21777;SDS011;11050;52.222;20.916;2023-08-20T07:26:54;18.65;;;16.90;;
21777;SDS011;11050;52.222;20.916;2023-08-20T07:29:24;19.17;;;17.15;;
21777;SDS011;11050;52.222;20.916;2023-08-20T07:31:51;19.05;;;17.05;;
21777;SDS011;11050;52.222;20.916;2023-08-20T07:34:16;18.85;;;17.10;;
21777;SDS011;11050;52.222;20.916;2023-08-20T07:36:42;18.35;;;16.65;;
21777;SDS011;11050;52.222;20.916;2023-08-20T07:39:08;16.70;;;15.20;;
21777;SDS011;11050;52.222;20.916;2023-08-20T07:41:34;17.60;;;16.00;;
21777;SDS011;11050;52.222;20.916;2023-08-20T07:43:59;18.38;;;16.42;;
21777;SDS011;11050;52.222;20.916;2023-08-20T07:46:25;19.20;;;17.40;;
21777;SDS011;11050;52.222;20.916;2023-08-20T07:48:51;17.23;;;15.57;;
21777;SDS011;11050;52.222;20.916;2023-08-20T07:51:16;18.25;;;16.17;;
21777;SDS011;11050;52.222;20.916;2023-08-20T07:53:42;18.20;;;16.40;;
21777;SDS011;11050;52.222;20.916;2023-08-20T07:56:08;18.58;;;16.63;;
21777;SDS011;11050;52.222;20.916;2023-08-20T07:58:34;17.83;;;15.93;;
21777;SDS011;11050;52.222;20.916;2023-08-20T08:01:00;16.35;;;14.88;;
21777;SDS011;11050;52.222;20.916;2023-08-20T08:03:25;17.23;;;15.43;;
21777;SDS011;11050;52.222;20.916;2023-08-20T08:05:51;16.48;;;14.88;;
21777;SDS011;11050;52.222;20.916;2023-08-20T08:08:19;16.13;;;14.52;;
21777;SDS011;11050;52.222;20.916;2023-08-20T08:10:45;15.30;;;13.88;;
21777;SDS011;11050;52.222;20.916;2023-08-20T08:13:11;15.52;;;14.00;;
21777;SDS011;11050;52.222;20.916;2023-08-20T08:15:39;14.80;;;13.50;;
21777;SDS011;11050;52.222;20.916;2023-08-20T08:18:05;15.93;;;14.45;;
21777;SDS011;11050;52.222;20.916;2023-08-20T08:20:32;16.25;;;14.73;;
21777;SDS011;11050;52.222;20.916;2023-08-20T08:22:58;16.25;;;14.65;;
21777;SDS011;11050;52.222;20.916;2023-08-20T08:25:25;16.38;;;14.88;;
21777;SDS011;11050;52.222;20.916;2023-08-20T08:27:51;17.45;;;15.55;;
21777;SDS011;11050;52.222;20.916;2023-08-20T08:30:17;17.60;;;15.82;;
21777;SDS011;11050;52.222;20.916;2023-08-20T08:32:43;15.90;;;14.50;;
21777;SDS011;11050;52.222;20.916;2023-08-20T08:35:09;14.68;;;13.20;;
21777;SDS011;11050;52.222;20.916;2023-08-20T08:37:34;15.02;;;13.73;;
21777;SDS011;11050;52.222;20.916;2023-08-20T08:40:01;18.05;;;13.77;;
21777;SDS011;11050;52.222;20.916;2023-08-20T08:42:30;15.55;;;14.13;;
21777;SDS011;11050;52.222;20.916;2023-08-20T08:44:59;14.98;;;13.48;;
21777;SDS011;11050;52.222;20.916;2023-08-20T08:47:25;14.50;;;13.10;;
21777;SDS011;11050;52.222;20.916;2023-08-20T08:49:52;15.68;;;14.07;;
21777;SDS011;11050;52.222;20.916;2023-08-20T08:52:24;16.77;;;14.68;;
21777;SDS011;11050;52.222;20.916;2023-08-20T08:54:54;14.43;;;13.00;;
21777;SDS011;11050;52.222;20.916;2023-08-20T08:57:20;13.80;;;12.55;;
21777;SDS011;11050;52.222;20.916;2023-08-20T08:59:46;14.90;;;13.40;;
21777;SDS011;11050;52.222;20.916;2023-08-20T09:02:12;14.43;;;13.05;;
21777;SDS011;11050;52.222;20.916;2023-08-20T09:04:38;15.65;;;13.82;;
21777;SDS011;11050;52.222;20.916;2023-08-20T09:07:05;14.95;;;13.35;;
21777;SDS011;11050;52.222;20.916;2023-08-20T09:09:36;14.05;;;12.63;;
21777;SDS011;11050;52.222;20.916;2023-08-20T09:12:12;14.93;;;13.52;;
21777;SDS011;11050;52.222;20.916;2023-08-20T09:14:39;16.65;;;14.98;;
21777;SDS011;11050;52.222;20.916;2023-08-20T09:17:10;15.70;;;14.20;;
21777;SDS011;11050;52.222;20.916;2023-08-20T09:19:37;15.90;;;14.55;;
21777;SDS011;11050;52.222;20.916;2023-08-20T09:22:03;15.43;;;13.90;;
21777;SDS011;11050;52.222;20.916;2023-08-20T09:24:33;15.93;;;14.43;;
21777;SDS011;11050;52.222;20.916;2023-08-20T09:27:17;15.55;;;14.25;;
21777;SDS011;11050;52.222;20.916;2023-08-20T09:29:56;14.25;;;12.82;;
21777;SDS011;11050;52.222;20.916;2023-08-20T09:32:25;16.42;;;14.73;;
21777;SDS011;11050;52.222;20.916;2023-08-20T09:34:53;15.85;;;14.25;;
21777;SDS011;11050;52.222;20.916;2023-08-20T09:37:21;15.30;;;14.00;;
21777;SDS011;11050;52.222;20.916;2023-08-20T09:39:49;14.98;;;13.65;;
21777;SDS011;11050;52.222;20.916;2023-08-20T09:42:16;14.65;;;13.35;;
21777;SDS011;11050;52.222;20.916;2023-08-20T09:44:43;15.15;;;13.75;;
21777;SDS011;11050;52.222;20.916;2023-08-20T09:47:11;15.43;;;14.02;;
21777;SDS011;11050;52.222;20.916;2023-08-20T09:49:43;15.48;;;14.02;;
21777;SDS011;11050;52.222;20.916;2023-08-20T09:52:16;15.38;;;13.90;;
21777;SDS011;11050;52.222;20.916;2023-08-20T09:57:41;15.57;;;14.15;;
21777;SDS011;11050;52.222;20.916;2023-08-20T10:00:08;16.40;;;15.00;;
21777;SDS011;11050;52.222;20.916;2023-08-20T10:02:35;15.25;;;13.88;;
21777;SDS011;11050;52.222;20.916;2023-08-20T10:05:06;16.42;;;14.82;;
21777;SDS011;11050;52.222;20.916;2023-08-20T10:07:35;16.00;;;14.48;;
21777;SDS011;11050;52.222;20.916;2023-08-20T10:10:03;14.65;;;13.45;;
21777;SDS011;11050;52.222;20.916;2023-08-20T10:12:31;15.50;;;14.15;;
21777;SDS011;11050;52.222;20.916;2023-08-20T10:14:58;15.13;;;13.68;;
21777;SDS011;11050;52.222;20.916;2023-08-20T10:17:25;15.13;;;13.68;;
21777;SDS011;11050;52.222;20.916;2023-08-20T10:19:57;15.57;;;14.25;;
21777;SDS011;11050;52.222;20.916;2023-08-20T10:22:36;15.68;;;14.30;;
21777;SDS011;11050;52.222;20.916;2023-08-20T10:27:38;15.52;;;14.05;;
21777;SDS011;11050;52.222;20.916;2023-08-20T10:30:08;15.65;;;14.13;;
21777;SDS011;11050;52.222;20.916;2023-08-20T10:35:22;15.30;;;13.90;;
21777;SDS011;11050;52.222;20.916;2023-08-20T10:38:01;14.77;;;13.38;;
21777;SDS011;11050;52.222;20.916;2023-08-20T10:43:32;16.92;;;13.35;;
21777;SDS011;11050;52.222;20.916;2023-08-20T10:48:41;14.82;;;13.43;;
21777;SDS011;11050;52.222;20.916;2023-08-20T10:51:15;15.40;;;13.82;;
21777;SDS011;11050;52.222;20.916;2023-08-20T10:53:42;14.15;;;12.75;;
21777;SDS011;11050;52.222;20.916;2023-08-20T10:56:47;14.18;;;12.95;;
21777;SDS011;11050;52.222;20.916;2023-08-20T11:01:47;14.80;;;13.48;;
21777;SDS011;11050;52.222;20.916;2023-08-20T11:04:20;14.13;;;12.85;;
21777;SDS011;11050;52.222;20.916;2023-08-20T11:06:55;14.32;;;12.95;;
21777;SDS011;11050;52.222;20.916;2023-08-20T11:09:22;13.55;;;12.43;;
21777;SDS011;11050;52.222;20.916;2023-08-20T11:11:51;13.77;;;12.57;;
21777;SDS011;11050;52.222;20.916;2023-08-20T11:14:17;13.85;;;12.73;;
21777;SDS011;11050;52.222;20.916;2023-08-20T11:16:45;13.48;;;12.48;;
21777;SDS011;11050;52.222;20.916;2023-08-20T11:19:13;13.75;;;12.65;;
21777;SDS011;11050;52.222;20.916;2023-08-20T11:21:44;13.18;;;12.05;;
21777;SDS011;11050;52.222;20.916;2023-08-20T11:24:11;13.80;;;12.57;;
21777;SDS011;11050;52.222;20.916;2023-08-20T11:26:41;13.98;;;12.68;;
21777;SDS011;11050;52.222;20.916;2023-08-20T11:29:14;12.82;;;11.82;;
21777;SDS011;11050;52.222;20.916;2023-08-20T11:31:45;12.82;;;11.73;;
21777;SDS011;11050;52.222;20.916;2023-08-20T11:34:12;12.50;;;11.50;;
21777;SDS011;11050;52.222;20.916;2023-08-20T11:36:39;12.15;;;11.05;;
21777;SDS011;11050;52.222;20.916;2023-08-20T11:39:05;13.05;;;11.95;;
21777;SDS011;11050;52.222;20.916;2023-08-20T11:41:35;12.40;;;11.23;;
21777;SDS011;11050;52.222;20.916;2023-08-20T11:44:02;13.43;;;12.32;;
21777;SDS011;11050;52.222;20.916;2023-08-20T11:46:28;13.55;;;12.25;;
21777;SDS011;11050;52.222;20.916;2023-08-20T11:49:01;13.68;;;12.35;;
21777;SDS011;11050;52.222;20.916;2023-08-20T11:51:44;13.40;;;12.30;;
21777;SDS011;11050;52.222;20.916;2023-08-20T11:54:14;13.50;;;12.30;;
21777;SDS011;11050;52.222;20.916;2023-08-20T11:56:48;13.77;;;12.63;;
21777;SDS011;11050;52.222;20.916;2023-08-20T11:59:16;13.32;;;12.18;;
21777;SDS011;11050;52.222;20.916;2023-08-20T12:01:50;14.48;;;13.13;;
21777;SDS011;11050;52.222;20.916;2023-08-20T12:04:17;13.20;;;12.18;;
21777;SDS011;11050;52.222;20.916;2023-08-20T12:06:42;13.60;;;12.50;;
21777;SDS011;11050;52.222;20.916;2023-08-20T12:09:21;13.18;;;12.10;;
21777;SDS011;11050;52.222;20.916;2023-08-20T12:11:48;13.60;;;12.50;;
21777;SDS011;11050;52.222;20.916;2023-08-20T12:14:16;13.98;;;12.70;;
21777;SDS011;11050;52.222;20.916;2023-08-20T12:16:43;13.98;;;12.88;;
21777;SDS011;11050;52.222;20.916;2023-08-20T12:19:08;13.60;;;12.38;;
21777;SDS011;11050;52.222;20.916;2023-08-20T12:21:34;13.82;;;12.63;;
21777;SDS011;11050;52.222;20.916;2023-08-20T12:24:00;13.48;;;12.38;;
21777;SDS011;11050;52.222;20.916;2023-08-20T12:26:25;13.70;;;12.60;;
21777;SDS011;11050;52.222;20.916;2023-08-20T12:28:51;12.35;;;11.25;;
21777;SDS011;11050;52.222;20.916;2023-08-20T12:31:17;13.48;;;12.32;;
21777;SDS011;11050;52.222;20.916;2023-08-20T12:33:42;12.85;;;11.85;;
21777;SDS011;11050;52.222;20.916;2023-08-20T12:36:08;13.25;;;12.13;;
21777;SDS011;11050;52.222;20.916;2023-08-20T12:38:34;12.05;;;11.15;;
21777;SDS011;11050;52.222;20.916;2023-08-20T12:41:00;12.98;;;11.88;;
21777;SDS011;11050;52.222;20.916;2023-08-20T12:43:28;12.70;;;11.57;;
21777;SDS011;11050;52.222;20.916;2023-08-20T12:45:54;12.52;;;11.43;;
21777;SDS011;11050;52.222;20.916;2023-08-20T12:48:20;12.68;;;11.68;;
21777;SDS011;11050;52.222;20.916;2023-08-20T12:50:45;12.75;;;11.60;;
21777;SDS011;11050;52.222;20.916;2023-08-20T12:53:11;13.07;;;12.07;;
21777;SDS011;11050;52.222;20.916;2023-08-20T12:55:38;12.75;;;11.57;;
21777;SDS011;11050;52.222;20.916;2023-08-20T12:58:03;12.65;;;11.65;;
21777;SDS011;11050;52.222;20.916;2023-08-20T13:00:29;13.77;;;12.35;;
21777;SDS011;11050;52.222;20.916;2023-08-20T13:02:55;13.40;;;12.30;;
21777;SDS011;11050;52.222;20.916;2023-08-20T13:05:22;13.30;;;12.02;;
21777;SDS011;11050;52.222;20.916;2023-08-20T13:07:49;12.70;;;11.60;;
21777;SDS011;11050;52.222;20.916;2023-08-20T13:10:16;12.63;;;11.60;;
21777;SDS011;11050;52.222;20.916;2023-08-20T13:12:45;12.80;;;11.50;;
21777;SDS011;11050;52.222;20.916;2023-08-20T13:15:17;12.25;;;11.25;;
21777;SDS011;11050;52.222;20.916;2023-08-20T13:17:45;12.75;;;11.57;;
21777;SDS011;11050;52.222;20.916;2023-08-20T13:20:13;11.18;;;10.27;;
21777;SDS011;11050;52.222;20.916;2023-08-20T13:22:40;12.60;;;11.52;;
21777;SDS011;11050;52.222;20.916;2023-08-20T13:25:06;11.80;;;10.93;;
21777;SDS011;11050;52.222;20.916;2023-08-20T13:27:32;12.18;;;11.18;;
21777;SDS011;11050;52.222;20.916;2023-08-20T13:29:58;12.02;;;11.10;;
21777;SDS011;11050;52.222;20.916;2023-08-20T13:32:24;12.40;;;11.32;;
21777;SDS011;11050;52.222;20.916;2023-08-20T13:34:50;12.85;;;11.77;;
21777;SDS011;11050;52.222;20.916;2023-08-20T13:37:16;12.13;;;11.10;;
21777;SDS011;11050;52.222;20.916;2023-08-20T13:39:42;12.55;;;11.45;;
21777;SDS011;11050;52.222;20.916;2023-08-20T13:42:08;12.20;;;11.20;;
21777;SDS011;11050;52.222;20.916;2023-08-20T13:44:34;12.38;;;11.13;;
21777;SDS011;11050;52.222;20.916;2023-08-20T13:46:59;11.98;;;11.05;;
21777;SDS011;11050;52.222;20.916;2023-08-20T13:49:25;12.68;;;11.68;;
21777;SDS011;11050;52.222;20.916;2023-08-20T13:51:51;12.68;;;11.70;;
21777;SDS011;11050;52.222;20.916;2023-08-20T13:54:16;12.70;;;11.75;;
21777;SDS011;11050;52.222;20.916;2023-08-20T13:56:42;12.70;;;11.48;;
21777;SDS011;11050;52.222;20.916;2023-08-20T13:59:11;13.48;;;12.20;;
21777;SDS011;11050;52.222;20.916;2023-08-20T14:01:36;12.75;;;11.63;;
21777;SDS011;11050;52.222;20.916;2023-08-20T14:04:02;12.82;;;11.82;;
21777;SDS011;11050;52.222;20.916;2023-08-20T14:06:29;12.60;;;11.43;;
21777;SDS011;11050;52.222;20.916;2023-08-20T14:08:55;12.50;;;11.43;;
21777;SDS011;11050;52.222;20.916;2023-08-20T14:11:21;12.90;;;11.77;;
21777;SDS011;11050;52.222;20.916;2023-08-20T14:13:49;12.48;;;11.38;;
21777;SDS011;11050;52.222;20.916;2023-08-20T14:16:15;12.98;;;11.88;;
21777;SDS011;11050;52.222;20.916;2023-08-20T14:18:40;12.73;;;11.63;;
21777;SDS011;11050;52.222;20.916;2023-08-20T14:21:06;11.80;;;10.93;;
21777;SDS011;11050;52.222;20.916;2023-08-20T14:23:32;12.50;;;11.57;;
21777;SDS011;11050;52.222;20.916;2023-08-20T14:25:57;11.88;;;10.88;;
21777;SDS011;11050;52.222;20.916;2023-08-20T14:28:23;12.32;;;11.20;;
21777;SDS011;11050;52.222;20.916;2023-08-20T14:30:49;11.52;;;10.52;;